Time;durP1;ratioP1;P1;durP2;ratioP2;P2;SDS_P1;SDS_P2;PMS_P1;PMS_P2;Temp;Humidity;BMP_temperature;BMP_pressure;BME280_temperature;BME280_humidity;BME280_pressure;Samples;Min_cycle;Max_cycle;Signal;HPM_P1;HPM_P2
2024/03/01 00:00:24;;;;;;;4.70;3.13;;;8.90;99.90;;;;;;5054602;28;20890;-45
2024/03/01 00:02:55;;;;;;;3.50;2.90;;;8.90;99.90;;;;;;5055167;28;20525;-46
2024/03/01 00:05:27;;;;;;;5.03;3.00;;;8.80;99.90;;;;;;5053649;28;20997;-46
2024/03/01 00:07:58;;;;;;;5.40;4.50;;;8.90;99.90;;;;;;5063337;28;20928;-45
2024/03/01 00:10:27;;;;;;;6.00;3.63;;;8.80;99.90;;;;;;5057780;28;20840;-46
2024/03/01 00:12:57;;;;;;;3.77;3.13;;;8.80;99.90;;;;;;5057059;28;20449;-45
2024/03/01 00:15:26;;;;;;;5.23;4.20;;;8.80;99.90;;;;;;5056322;28;20467;-46
2024/03/01 00:17:54;;;;;;;4.67;3.40;;;8.90;99.90;;;;;;5057231;28;20496;-46
2024/03/01 00:20:24;;;;;;;6.60;4.57;;;8.80;99.90;;;;;;5052861;28;20459;-46
2024/03/01 00:22:54;;;;;;;6.07;5.07;;;8.80;99.90;;;;;;5055096;28;20465;-46
2024/03/01 00:25:24;;;;;;;6.23;5.07;;;8.80;99.90;;;;;;5055126;28;20558;-46
2024/03/01 00:27:55;;;;;;;7.20;5.07;;;8.80;99.90;;;;;;5055217;28;20941;-46
2024/03/01 00:30:26;;;;;;;5.93;4.60;;;8.80;99.90;;;;;;5059065;28;20533;-46
2024/03/01 00:32:55;;;;;;;7.47;5.67;;;8.80;99.90;;;;;;5055829;28;20449;-46
2024/03/01 00:35:23;;;;;;;5.33;4.43;;;8.80;99.90;;;;;;5053734;28;20548;-46
2024/03/01 00:37:52;;;;;;;5.73;4.27;;;8.80;99.90;;;;;;5056092;28;20549;-46
2024/03/01 00:40:24;;;;;;;8.63;5.60;;;8.80;99.90;;;;;;5055332;28;20455;-46
2024/03/01 00:42:54;;;;;;;6.57;4.13;;;8.80;99.90;;;;;;5052716;28;20448;-45
2024/03/01 00:45:25;;;;;;;5.90;4.43;;;8.80;99.90;;;;;;5055541;28;20999;-46
2024/03/01 00:47:53;;;;;;;6.60;4.60;;;8.80;99.90;;;;;;5057444;28;20430;-45
2024/03/01 00:50:26;;;;;;;7.27;4.60;;;8.80;99.90;;;;;;5053856;28;20463;-46
2024/03/01 00:52:57;;;;;;;6.03;4.13;;;8.80;99.90;;;;;;5057281;28;20509;-47
2024/03/01 00:55:25;;;;;;;4.50;3.10;;;8.80;99.90;;;;;;5059085;28;21049;-46
2024/03/01 00:57:54;;;;;;;5.63;4.07;;;8.80;99.90;;;;;;5057193;28;20430;-46
2024/03/01 01:00:24;;;;;;;5.97;3.93;;;8.80;99.90;;;;;;5054753;28;20529;-45
2024/03/01 01:02:56;;;;;;;6.80;5.30;;;8.80;99.90;;;;;;5052969;28;20446;-46
2024/03/01 01:05:25;;;;;;;5.87;3.30;;;8.80;99.90;;;;;;5052500;28;20463;-47
2024/03/01 01:07:56;;;;;;;5.57;4.47;;;8.80;99.90;;;;;;5055597;28;20873;-46
2024/03/01 01:10:28;;;;;;;4.40;3.23;;;8.80;99.90;;;;;;5055478;28;20478;-46
2024/03/01 01:12:58;;;;;;;6.03;3.67;;;8.80;99.90;;;;;;5056048;28;20456;-45
2024/03/01 01:15:26;;;;;;;3.67;2.57;;;8.80;99.90;;;;;;5055115;28;20455;-45
2024/03/01 01:17:57;;;;;;;5.20;3.37;;;8.80;99.90;;;;;;5056367;28;20430;-50
2024/03/01 01:20:26;;;;;;;6.37;4.37;;;8.80;99.90;;;;;;5053215;28;20459;-45
2024/03/01 01:22:54;;;;;;;5.27;3.83;;;8.80;99.90;;;;;;5061452;28;20430;-45
2024/03/01 01:25:26;;;;;;;6.27;4.23;;;8.80;99.90;;;;;;5061612;28;21035;-47
2024/03/01 01:27:55;;;;;;;4.77;3.50;;;8.80;99.90;;;;;;5056560;28;20525;-45
2024/03/01 01:30:27;;;;;;;7.13;5.30;;;8.80;99.90;;;;;;5052813;28;20506;-46
2024/03/01 01:32:56;;;;;;;4.40;3.47;;;8.80;99.90;;;;;;5059129;28;20434;-47
2024/03/01 01:35:26;;;;;;;5.20;4.20;;;8.80;99.90;;;;;;5056343;28;20518;-46
2024/03/01 01:37:57;;;;;;;6.03;4.67;;;8.80;99.90;;;;;;5056458;28;20445;-47
2024/03/01 01:40:30;;;;;;;4.87;3.60;;;8.80;99.90;;;;;;5055284;28;20455;-47
2024/03/01 01:43:02;;;;;;;5.93;3.63;;;8.80;99.90;;;;;;5062165;28;20426;-48
2024/03/01 01:45:33;;;;;;;5.13;3.70;;;8.80;99.90;;;;;;5058497;28;20459;-47
2024/03/01 01:48:02;;;;;;;6.63;3.40;;;8.80;99.90;;;;;;5055672;28;20434;-48
2024/03/01 01:50:33;;;;;;;5.87;3.07;;;8.80;99.90;;;;;;5053024;28;20463;-48
2024/03/01 01:53:03;;;;;;;3.33;2.73;;;8.80;99.90;;;;;;5055831;28;20964;-47
2024/03/01 01:55:45;;;;;;;3.93;3.10;;;8.80;99.90;;;;;;5053913;28;21018;-46
2024/03/01 01:58:13;;;;;;;4.70;3.60;;;8.80;99.90;;;;;;5053529;28;20964;-46
2024/03/01 02:00:43;;;;;;;3.90;2.67;;;8.80;99.90;;;;;;5056504;28;20490;-46
2024/03/01 02:03:12;;;;;;;4.83;3.00;;;8.80;99.90;;;;;;5054192;28;20428;-46
2024/03/01 02:05:42;;;;;;;4.20;3.03;;;8.80;99.90;;;;;;5053485;28;20964;-46
2024/03/01 02:08:11;;;;;;;3.40;2.60;;;8.80;99.90;;;;;;5054537;28;21168;-45
2024/03/01 02:10:39;;;;;;;3.90;2.80;;;8.80;99.90;;;;;;5060127;28;20473;-45
2024/03/01 02:13:18;;;;;;;3.77;2.50;;;8.80;99.90;;;;;;5059129;28;20858;-46
2024/03/01 02:15:53;;;;;;;5.20;2.83;;;8.80;99.90;;;;;;5052341;28;21016;-45
2024/03/01 02:18:22;;;;;;;3.83;2.80;;;8.80;99.90;;;;;;5053710;28;20852;-48
2024/03/01 02:20:59;;;;;;;3.43;3.10;;;8.80;99.90;;;;;;5053163;28;20459;-47
2024/03/01 02:23:29;;;;;;;4.60;3.13;;;8.80;99.90;;;;;;5055579;28;20480;-47
2024/03/01 02:25:57;;;;;;;3.77;2.73;;;8.80;99.90;;;;;;5053659;28;20465;-45
2024/03/01 02:28:26;;;;;;;3.67;2.57;;;8.80;99.90;;;;;;5057600;28;20448;-46
2024/03/01 02:30:56;;;;;;;4.13;3.30;;;8.80;99.90;;;;;;5055676;28;20470;-45
2024/03/01 02:33:27;;;;;;;3.47;2.30;;;8.80;99.90;;;;;;5055459;28;20416;-45
2024/03/01 02:35:55;;;;;;;4.77;3.00;;;8.80;99.90;;;;;;5052782;28;20473;-46
2024/03/01 02:38:26;;;;;;;4.20;2.67;;;8.80;99.90;;;;;;5060112;28;20428;-49
2024/03/01 02:40:59;;;;;;;3.20;2.53;;;8.80;99.90;;;;;;5055586;28;20581;-46
2024/03/01 02:43:27;;;;;;;3.70;2.83;;;8.80;99.90;;;;;;5055119;28;20469;-46
2024/03/01 02:45:55;;;;;;;3.70;2.90;;;8.80;99.90;;;;;;5060421;28;20551;-45
2024/03/01 02:48:26;;;;;;;4.00;2.97;;;8.80;99.90;;;;;;5052862;28;20438;-46
2024/03/01 02:50:57;;;;;;;3.80;2.80;;;8.80;99.90;;;;;;5054659;28;20903;-45
2024/03/01 02:53:25;;;;;;;4.70;2.80;;;8.80;99.90;;;;;;5063856;28;20464;-46
2024/03/01 02:55:55;;;;;;;3.63;3.00;;;8.80;99.90;;;;;;5055472;28;20470;-45
2024/03/01 02:58:28;;;;;;;4.43;2.50;;;8.80;99.90;;;;;;5058909;28;20436;-46
2024/03/01 03:00:56;;;;;;;3.97;2.83;;;8.80;99.90;;;;;;5058174;28;20545;-47
2024/03/01 03:03:25;;;;;;;4.27;2.93;;;8.80;99.90;;;;;;5056714;28;20431;-49
2024/03/01 03:05:54;;;;;;;4.30;3.33;;;8.80;99.90;;;;;;5060312;28;20472;-47
2024/03/01 03:08:25;;;;;;;3.27;2.40;;;8.80;99.90;;;;;;5058348;28;20484;-48
2024/03/01 03:10:53;;;;;;;3.40;2.47;;;8.80;99.90;;;;;;5056609;28;20523;-46
2024/03/01 03:13:25;;;;;;;4.27;3.10;;;8.80;99.90;;;;;;5056666;28;20808;-46
2024/03/01 03:15:54;;;;;;;3.50;2.27;;;8.80;99.90;;;;;;5058634;28;20566;-46
2024/03/01 03:18:23;;;;;;;4.60;2.80;;;8.80;99.90;;;;;;5057494;28;20497;-46
2024/03/01 03:20:54;;;;;;;3.27;2.40;;;8.80;99.90;;;;;;5057600;28;20458;-48
2024/03/01 03:23:25;;;;;;;3.87;1.90;;;8.80;99.90;;;;;;5064106;28;20427;-49
2024/03/01 03:25:56;;;;;;;2.90;2.13;;;8.80;99.90;;;;;;5058401;28;20458;-47
2024/03/01 03:28:26;;;;;;;3.10;2.20;;;8.80;99.90;;;;;;5069091;28;20509;-46
2024/03/01 03:30:55;;;;;;;3.47;2.93;;;8.80;99.90;;;;;;5057746;28;20476;-46
2024/03/01 03:33:24;;;;;;;4.70;3.30;;;8.80;99.90;;;;;;5060702;28;20786;-45
2024/03/01 03:35:56;;;;;;;3.30;2.40;;;8.80;99.90;;;;;;5044293;28;20459;-45
2024/03/01 03:38:24;;;;;;;3.30;2.47;;;8.80;99.90;;;;;;5056582;28;20867;-45
2024/03/01 03:40:56;;;;;;;3.50;2.77;;;8.80;99.90;;;;;;5057936;28;20461;-45
2024/03/01 03:43:25;;;;;;;3.07;2.00;;;8.80;99.90;;;;;;5040982;28;20442;-49
2024/03/01 03:45:58;;;;;;;2.87;2.10;;;8.80;99.90;;;;;;5057987;28;21068;-45
2024/03/01 03:48:27;;;;;;;6.53;2.10;;;8.80;99.90;;;;;;5064704;28;20423;-47
2024/03/01 03:50:57;;;;;;;3.50;2.20;;;8.80;99.90;;;;;;5059174;28;20869;-46
2024/03/01 03:53:27;;;;;;;3.20;1.87;;;8.80;99.90;;;;;;5058485;28;20925;-45
2024/03/01 03:55:56;;;;;;;4.00;2.50;;;8.80;99.90;;;;;;5058414;28;20488;-46
2024/03/01 03:58:24;;;;;;;2.93;2.40;;;8.80;99.90;;;;;;5058908;28;20506;-46
2024/03/01 04:00:53;;;;;;;4.53;2.90;;;8.80;99.90;;;;;;5057580;28;20979;-45
2024/03/01 04:03:26;;;;;;;3.83;2.77;;;8.80;99.90;;;;;;5066308;28;20441;-45
2024/03/01 04:05:57;;;;;;;2.60;1.90;;;8.80;99.90;;;;;;5065868;28;20470;-45
2024/03/01 04:08:26;;;;;;;3.03;1.80;;;8.80;99.90;;;;;;5057404;28;20463;-47
2024/03/01 04:10:54;;;;;;;3.03;2.23;;;8.80;99.90;;;;;;5059447;28;20516;-46
2024/03/01 04:13:26;;;;;;;3.17;2.80;;;8.80;99.90;;;;;;5058268;28;20475;-45
2024/03/01 04:15:56;;;;;;;3.60;2.20;;;8.80;99.90;;;;;;5055798;28;20482;-47
2024/03/01 04:18:29;;;;;;;2.70;2.20;;;8.80;99.90;;;;;;5057776;28;20463;-45
2024/03/01 04:20:57;;;;;;;3.70;2.40;;;8.80;99.90;;;;;;5056929;28;20979;-46
2024/03/01 04:23:27;;;;;;;3.80;2.40;;;8.80;99.90;;;;;;5058316;28;20440;-45
2024/03/01 04:25:57;;;;;;;3.27;2.70;;;8.80;99.90;;;;;;5058634;28;20462;-45
2024/03/01 04:28:26;;;;;;;2.33;2.00;;;8.80;99.90;;;;;;5056545;28;20447;-49
2024/03/01 04:30:55;;;;;;;2.63;2.00;;;8.80;99.90;;;;;;5039319;28;20551;-48
2024/03/01 04:33:28;;;;;;;3.03;2.00;;;8.80;99.90;;;;;;5056487;28;20502;-46
2024/03/01 04:35:56;;;;;;;3.20;2.03;;;8.80;99.90;;;;;;5058364;28;20474;-47
2024/03/01 04:38:27;;;;;;;3.17;2.70;;;8.80;99.90;;;;;;5061239;28;20428;-45
2024/03/01 04:40:57;;;;;;;2.53;1.93;;;8.80;99.90;;;;;;5058829;28;20452;-47
2024/03/01 04:43:27;;;;;;;3.47;2.40;;;8.80;99.90;;;;;;5057650;28;20432;-46
2024/03/01 04:45:56;;;;;;;2.43;1.97;;;8.80;99.90;;;;;;5058117;28;20549;-46
2024/03/01 04:48:24;;;;;;;3.53;2.20;;;8.80;99.90;;;;;;5057661;28;20435;-47
2024/03/01 04:50:54;;;;;;;3.33;2.20;;;8.80;99.90;;;;;;5053651;28;22041;-47
2024/03/01 04:53:25;;;;;;;2.90;1.93;;;8.80;99.90;;;;;;5057186;28;20474;-47
2024/03/01 04:55:57;;;;;;;3.77;2.10;;;8.80;99.90;;;;;;5058155;28;20473;-47
2024/03/01 04:58:26;;;;;;;3.23;2.27;;;8.80;99.90;;;;;;5054941;28;20800;-46
2024/03/01 05:00:56;;;;;;;3.00;2.53;;;8.80;99.90;;;;;;5057843;28;20454;-46
2024/03/01 05:03:25;;;;;;;3.27;1.97;;;8.80;99.90;;;;;;5066378;28;20714;-46
2024/03/01 05:05:54;;;;;;;2.93;2.27;;;8.80;99.90;;;;;;5054634;28;20462;-45
2024/03/01 05:08:24;;;;;;;2.47;1.90;;;8.80;99.90;;;;;;5056178;28;20441;-45
2024/03/01 05:10:53;;;;;;;2.17;1.97;;;8.80;99.90;;;;;;5054919;28;20466;-46
2024/03/01 05:13:22;;;;;;;4.50;2.07;;;8.80;99.90;;;;;;5053388;28;20991;-45
2024/03/01 05:15:53;;;;;;;2.80;2.00;;;8.80;99.90;;;;;;5056230;28;21102;-46
2024/03/01 05:18:25;;;;;;;2.13;1.80;;;8.80;99.90;;;;;;5060897;28;20425;-46
2024/03/01 05:20:55;;;;;;;3.03;2.10;;;8.80;99.90;;;;;;5055522;28;20488;-46
2024/03/01 05:23:26;;;;;;;2.73;1.93;;;8.80;99.90;;;;;;5057533;28;20427;-47
2024/03/01 05:25:57;;;;;;;2.27;1.70;;;8.80;99.90;;;;;;5058990;28;20857;-46
2024/03/01 05:28:27;;;;;;;2.60;2.00;;;8.80;99.90;;;;;;5062966;28;20835;-47
2024/03/01 05:30:57;;;;;;;2.00;1.53;;;8.80;99.90;;;;;;5058275;28;20530;-47
2024/03/01 05:33:42;;;;;;;2.40;1.80;;;8.80;99.90;;;;;;5056530;28;20554;-47
2024/03/01 05:36:13;;;;;;;2.10;1.60;;;8.80;99.90;;;;;;5056546;28;20462;-46
2024/03/01 05:38:42;;;;;;;2.40;1.87;;;8.80;99.90;;;;;;5062494;28;20519;-47
2024/03/01 05:41:12;;;;;;;2.50;1.77;;;8.80;99.90;;;;;;5059688;28;20621;-48
2024/03/01 05:43:42;;;;;;;2.50;1.57;;;8.80;99.90;;;;;;5057441;28;20427;-45
2024/03/01 05:46:15;;;;;;;2.33;1.73;;;8.80;99.90;;;;;;5056088;28;20976;-46
2024/03/01 05:48:45;;;;;;;5.93;1.80;;;8.80;99.90;;;;;;5056226;28;20974;-49
2024/03/01 05:51:16;;;;;;;2.60;2.00;;;8.80;99.90;;;;;;5055377;28;20467;-45
2024/03/01 05:53:46;;;;;;;3.00;1.93;;;8.80;99.90;;;;;;5058510;28;20557;-45
2024/03/01 05:56:18;;;;;;;2.60;1.90;;;8.80;99.90;;;;;;5060564;28;20466;-47
2024/03/01 05:58:47;;;;;;;2.80;1.57;;;8.80;99.90;;;;;;5056268;28;20422;-46
2024/03/01 06:01:17;;;;;;;2.50;1.57;;;8.80;99.90;;;;;;5055832;28;20972;-45
2024/03/01 06:03:46;;;;;;;2.47;1.70;;;8.80;99.90;;;;;;5056112;28;20496;-45
2024/03/01 06:06:18;;;;;;;2.60;1.87;;;8.80;99.90;;;;;;5057528;28;20506;-45
2024/03/01 06:08:47;;;;;;;1.73;1.17;;;8.80;99.90;;;;;;5062385;28;20803;-45
2024/03/01 06:11:16;;;;;;;2.43;1.60;;;8.80;99.90;;;;;;5046378;28;20827;-46
2024/03/01 06:13:45;;;;;;;2.20;1.50;;;8.80;99.90;;;;;;5060969;28;20512;-45
2024/03/01 06:16:13;;;;;;;1.93;1.50;;;8.80;99.90;;;;;;5064147;28;20538;-46
2024/03/01 06:18:42;;;;;;;1.90;1.50;;;8.80;99.90;;;;;;5056110;28;20940;-45
2024/03/01 06:21:21;;;;;;;1.90;1.40;;;8.80;99.90;;;;;;5056118;28;20585;-48
2024/03/01 06:23:52;;;;;;;2.20;2.00;;;8.80;99.90;;;;;;5054590;28;20459;-44
2024/03/01 06:26:22;;;;;;;2.00;1.63;;;8.80;99.90;;;;;;5063261;28;20505;-48
2024/03/01 06:28:50;;;;;;;2.00;1.47;;;8.80;99.90;;;;;;5063083;28;20495;-46
2024/03/01 06:31:19;;;;;;;2.40;1.80;;;8.80;99.90;;;;;;5056800;28;20466;-44
2024/03/01 06:33:47;;;;;;;2.57;1.80;;;8.80;99.90;;;;;;5058939;28;20815;-46
2024/03/01 06:36:16;;;;;;;2.10;1.50;;;8.80;99.90;;;;;;5055534;28;20498;-50
2024/03/01 06:38:46;;;;;;;1.80;1.33;;;8.80;99.90;;;;;;5058037;28;20435;-47
2024/03/01 06:41:15;;;;;;;2.80;1.70;;;8.80;99.90;;;;;;5060232;28;20467;-44
2024/03/01 06:43:43;;;;;;;1.80;1.30;;;8.80;99.90;;;;;;5058720;28;20461;-45
2024/03/01 06:46:13;;;;;;;2.20;1.47;;;8.80;99.90;;;;;;5061121;28;21045;-47
2024/03/01 06:48:42;;;;;;;2.20;1.60;;;8.80;99.90;;;;;;5062805;28;20527;-47
2024/03/01 06:51:11;;;;;;;1.73;1.30;;;8.80;99.90;;;;;;5054663;28;20843;-45
2024/03/01 06:53:42;;;;;;;1.90;1.30;;;8.80;99.90;;;;;;5056941;28;20506;-45
2024/03/01 06:56:14;;;;;;;2.10;1.43;;;8.80;99.90;;;;;;5061180;28;20976;-46
2024/03/01 06:58:42;;;;;;;2.30;1.57;;;8.70;99.90;;;;;;5055446;28;20447;-47
2024/03/01 07:01:12;;;;;;;2.40;1.40;;;8.80;99.90;;;;;;5059369;28;20492;-48
2024/03/01 07:03:40;;;;;;;1.80;1.53;;;8.80;99.90;;;;;;5054512;28;20954;-45
2024/03/01 07:06:09;;;;;;;1.70;1.37;;;8.80;99.90;;;;;;5054692;28;20524;-45
2024/03/01 07:08:42;;;;;;;2.50;1.70;;;8.70;99.90;;;;;;5040214;28;20828;-46
2024/03/01 07:11:13;;;;;;;1.97;1.40;;;8.80;99.90;;;;;;5060724;28;20466;-47
2024/03/01 07:13:42;;;;;;;2.30;1.50;;;8.80;99.90;;;;;;5058386;28;20554;-46
2024/03/01 07:16:11;;;;;;;2.23;1.57;;;8.80;99.90;;;;;;5058550;28;20537;-46
2024/03/01 07:18:39;;;;;;;2.40;1.30;;;8.80;99.90;;;;;;5057429;28;20501;-45
2024/03/01 07:21:08;;;;;;;2.20;1.70;;;8.80;99.90;;;;;;5060630;28;21006;-46
2024/03/01 07:23:37;;;;;;;2.10;1.20;;;8.80;99.90;;;;;;5057698;28;20498;-47
2024/03/01 07:26:06;;;;;;;2.43;1.50;;;8.80;99.90;;;;;;5058588;28;20529;-45
2024/03/01 07:28:38;;;;;;;2.33;1.50;;;8.80;99.90;;;;;;5059905;28;20967;-46
2024/03/01 07:31:06;;;;;;;2.33;1.73;;;8.80;99.90;;;;;;5056247;28;20477;-47
2024/03/01 07:33:35;;;;;;;2.20;1.43;;;8.80;99.90;;;;;;5057153;28;20463;-49
2024/03/01 07:36:06;;;;;;;3.00;1.93;;;8.80;99.90;;;;;;5055196;28;20531;-45
2024/03/01 07:38:36;;;;;;;2.57;1.37;;;8.80;99.90;;;;;;5059383;28;20427;-45
2024/03/01 07:41:05;;;;;;;2.03;1.30;;;8.80;99.90;;;;;;5055854;28;20465;-45
2024/03/01 07:43:37;;;;;;;2.10;1.57;;;8.80;99.90;;;;;;5059407;28;20489;-46
2024/03/01 07:46:07;;;;;;;3.07;1.50;;;8.80;99.90;;;;;;5059447;28;20469;-45
2024/03/01 07:48:35;;;;;;;2.10;1.90;;;8.80;99.90;;;;;;5056987;28;20597;-46
2024/03/01 07:51:07;;;;;;;2.57;1.80;;;8.80;99.90;;;;;;5059015;28;21037;-46
2024/03/01 07:53:37;;;;;;;2.67;1.63;;;8.80;99.90;;;;;;5060587;28;20462;-47
2024/03/01 07:56:06;;;;;;;2.13;1.63;;;8.80;99.90;;;;;;5062518;28;20458;-45
2024/03/01 07:58:39;;;;;;;2.10;1.63;;;8.80;99.90;;;;;;5063205;28;20969;-47
2024/03/01 08:01:09;;;;;;;2.43;1.77;;;8.80;99.90;;;;;;5064486;28;21055;-45
2024/03/01 08:03:38;;;;;;;2.20;1.57;;;8.80;99.90;;;;;;5063270;28;20419;-49
2024/03/01 08:06:07;;;;;;;2.53;1.37;;;8.80;99.90;;;;;;5060960;28;20834;-46
2024/03/01 08:08:42;;;;;;;1.87;1.37;;;8.80;99.90;;;;;;5041719;28;20488;-45
2024/03/01 08:11:12;;;;;;;2.20;1.53;;;8.80;99.90;;;;;;5055435;28;20570;-48
2024/03/01 08:13:42;;;;;;;2.70;1.83;;;8.80;99.90;;;;;;5061707;28;20434;-46
2024/03/01 08:16:14;;;;;;;2.30;1.60;;;8.80;99.90;;;;;;5056345;28;20471;-45
2024/03/01 08:18:43;;;;;;;2.10;1.30;;;8.70;99.90;;;;;;5060267;28;20438;-45
2024/03/01 08:21:15;;;;;;;2.13;1.50;;;8.80;99.90;;;;;;5063706;28;20813;-49
2024/03/01 08:23:43;;;;;;;3.23;2.60;;;8.80;99.90;;;;;;5060134;28;20935;-46
2024/03/01 08:26:22;;;;;;;1.90;1.40;;;8.80;99.90;;;;;;5061989;28;20486;-47
2024/03/01 08:28:53;;;;;;;2.03;1.53;;;8.80;99.90;;;;;;5059657;28;20442;-45
2024/03/01 08:31:27;;;;;;;3.00;1.60;;;8.80;99.90;;;;;;5062526;28;20904;-46
2024/03/01 08:34:05;;;;;;;4.83;1.50;;;8.80;99.90;;;;;;5058298;28;20885;-45
2024/03/01 08:36:34;;;;;;;1.90;1.20;;;8.80;99.90;;;;;;5069342;28;21004;-45
2024/03/01 08:39:15;;;;;;;2.20;1.80;;;8.80;99.90;;;;;;5061635;28;20427;-46
2024/03/01 08:41:46;;;;;;;3.50;1.47;;;8.70;99.90;;;;;;5066342;28;20661;-46
2024/03/01 08:44:53;;;;;;;2.20;1.30;;;8.80;99.90;;;;;;5056312;28;20478;-46
2024/03/01 08:47:27;;;;;;;1.60;1.30;;;8.80;99.90;;;;;;5055212;28;20433;-45
2024/03/01 08:50:33;;;;;;;1.93;1.27;;;8.70;99.90;;;;;;5061524;28;20983;-45
2024/03/01 08:53:01;;;;;;;2.07;1.37;;;8.80;99.90;;;;;;5056551;28;20438;-45
2024/03/01 08:55:46;;;;;;;2.03;1.23;;;8.80;99.90;;;;;;5063105;28;20556;-48
2024/03/01 08:58:23;;;;;;;1.70;1.00;;;8.80;99.90;;;;;;5056197;28;21132;-45
2024/03/01 09:00:55;;;;;;;2.00;1.30;;;8.80;99.90;;;;;;5056821;28;20490;-46
2024/03/01 09:03:29;;;;;;;2.43;1.17;;;8.80;99.90;;;;;;5057136;28;20453;-46
2024/03/01 09:05:59;;;;;;;1.87;1.23;;;8.80;99.90;;;;;;5055799;28;20466;-46
2024/03/01 09:08:32;;;;;;;1.90;1.17;;;8.80;99.90;;;;;;5058606;28;20506;-46
2024/03/01 09:11:02;;;;;;;1.90;1.17;;;8.80;99.90;;;;;;5059415;28;20524;-47
2024/03/01 09:13:32;;;;;;;1.70;0.93;;;8.80;99.90;;;;;;5059922;28;21007;-46
2024/03/01 09:16:02;;;;;;;1.90;1.30;;;8.80;99.90;;;;;;5063856;28;20461;-47
2024/03/01 09:18:45;;;;;;;1.90;1.20;;;8.80;99.90;;;;;;5063943;28;20475;-49
2024/03/01 09:21:41;;;;;;;1.90;1.00;;;8.80;99.90;;;;;;5057778;28;20455;-44
2024/03/01 09:24:13;;;;;;;1.80;1.20;;;8.80;99.90;;;;;;5057452;28;21821;-47
2024/03/01 09:26:42;;;;;;;2.20;1.13;;;8.80;99.90;;;;;;5059652;28;20431;-50
2024/03/01 09:29:30;;;;;;;2.00;1.30;;;8.80;99.90;;;;;;5057607;28;20427;-45
2024/03/01 09:32:01;;;;;;;1.50;0.97;;;8.80;99.90;;;;;;5059453;28;20442;-45
2024/03/01 09:34:35;;;;;;;1.93;1.10;;;8.80;99.90;;;;;;5059307;28;20555;-45
2024/03/01 09:37:08;;;;;;;1.40;1.00;;;8.80;99.90;;;;;;5057381;28;20521;-47
2024/03/01 09:39:38;;;;;;;1.70;1.30;;;8.80;99.90;;;;;;5062358;28;20474;-48
2024/03/01 09:42:28;;;;;;;1.80;1.07;;;8.80;99.90;;;;;;5062569;28;20496;-46
2024/03/01 09:45:19;;;;;;;1.90;1.30;;;8.90;99.90;;;;;;5060721;28;20910;-48
2024/03/01 09:48:05;;;;;;;1.60;1.03;;;8.90;99.90;;;;;;5043426;28;20449;-46
2024/03/01 09:50:43;;;;;;;1.60;0.80;;;8.80;99.90;;;;;;5057479;28;20463;-49
2024/03/01 09:53:24;;;;;;;2.67;1.10;;;8.90;99.90;;;;;;5066142;28;20437;-45
2024/03/01 09:56:04;;;;;;;1.80;1.00;;;8.90;99.90;;;;;;5064717;28;20846;-47
2024/03/01 09:58:45;;;;;;;1.70;1.03;;;8.90;99.90;;;;;;5059806;28;20458;-46
2024/03/01 10:01:18;;;;;;;1.70;1.13;;;8.90;99.90;;;;;;5060477;28;20553;-47
2024/03/01 10:04:00;;;;;;;1.77;1.10;;;8.90;99.90;;;;;;5061859;28;20418;-46
2024/03/01 10:06:59;;;;;;;1.57;1.13;;;8.90;99.90;;;;;;5054537;28;20471;-45
2024/03/01 10:09:58;;;;;;;3.00;1.13;;;8.90;99.90;;;;;;5059617;28;20451;-47
2024/03/01 10:12:40;;;;;;;1.63;1.00;;;8.90;99.90;;;;;;5059915;28;20502;-46
2024/03/01 10:15:19;;;;;;;1.40;0.90;;;8.90;99.90;;;;;;5058833;28;20561;-45
2024/03/01 10:17:51;;;;;;;1.30;0.70;;;8.90;99.90;;;;;;5060187;28;20525;-45
2024/03/01 10:20:37;;;;;;;1.57;0.93;;;8.90;99.90;;;;;;5059950;28;20831;-45
2024/03/01 10:23:18;;;;;;;1.47;1.03;;;8.90;99.90;;;;;;5037538;28;20812;-45
2024/03/01 10:25:55;;;;;;;1.93;1.30;;;8.90;99.90;;;;;;5064790;28;20882;-46
2024/03/01 10:28:42;;;;;;;1.43;0.83;;;8.90;99.90;;;;;;5054444;28;20439;-46
2024/03/01 10:31:25;;;;;;;1.80;1.10;;;8.90;99.90;;;;;;5056784;28;20506;-45
2024/03/01 10:34:04;;;;;;;1.50;0.83;;;8.90;99.90;;;;;;5060338;28;20439;-45
2024/03/01 10:36:42;;;;;;;1.30;0.90;;;8.90;99.90;;;;;;5057155;28;20470;-45
2024/03/01 10:39:21;;;;;;;1.50;0.93;;;8.90;99.90;;;;;;5058634;28;20461;-45
2024/03/01 10:42:09;;;;;;;1.67;1.20;;;8.90;99.90;;;;;;5055313;28;20446;-45
2024/03/01 10:44:44;;;;;;;1.57;1.20;;;8.90;99.90;;;;;;5057708;28;20520;-45
2024/03/01 10:47:18;;;;;;;1.40;0.83;;;8.90;99.90;;;;;;5052741;28;20488;-47
2024/03/01 10:50:08;;;;;;;1.80;1.10;;;8.90;99.90;;;;;;5034650;28;20531;-46
2024/03/01 10:52:42;;;;;;;2.80;1.43;;;8.90;99.90;;;;;;5060182;28;20438;-47
2024/03/01 10:55:22;;;;;;;1.73;0.97;;;8.90;99.90;;;;;;5061434;28;20473;-46
2024/03/01 10:58:00;;;;;;;2.00;1.10;;;9.00;99.90;;;;;;5055896;28;20518;-46
2024/03/01 11:00:29;;;;;;;1.70;1.10;;;8.90;99.90;;;;;;5059944;28;20494;-47
2024/03/01 11:03:08;;;;;;;1.70;1.13;;;8.90;99.90;;;;;;5063340;28;20509;-44
2024/03/01 11:05:44;;;;;;;1.90;1.10;;;8.90;99.90;;;;;;5056496;28;21085;-44
2024/03/01 11:08:31;;;;;;;2.23;0.80;;;8.90;99.90;;;;;;5056469;28;20427;-46
2024/03/01 11:11:05;;;;;;;2.03;1.07;;;9.00;99.90;;;;;;5048515;28;20461;-46
2024/03/01 11:13:37;;;;;;;1.90;1.10;;;8.90;99.90;;;;;;5056979;28;20520;-45
2024/03/01 11:16:13;;;;;;;2.10;0.70;;;8.90;99.90;;;;;;5065110;28;20470;-46
2024/03/01 11:18:47;;;;;;;1.27;0.77;;;8.90;99.90;;;;;;5069433;28;20477;-45
2024/03/01 11:21:20;;;;;;;1.77;1.40;;;9.00;99.90;;;;;;5060568;28;20554;-45
2024/03/01 11:23:56;;;;;;;1.63;1.07;;;9.00;99.90;;;;;;5064733;28;20430;-47
2024/03/01 11:26:34;;;;;;;1.23;0.73;;;9.00;99.90;;;;;;5059108;28;22275;-45
2024/03/01 11:29:08;;;;;;;2.37;1.17;;;9.00;99.90;;;;;;5065291;28;20426;-46
2024/03/01 11:31:40;;;;;;;1.60;1.10;;;9.00;99.90;;;;;;5066739;28;20438;-44
2024/03/01 11:34:22;;;;;;;2.10;1.20;;;9.00;99.90;;;;;;5039036;28;20467;-46
2024/03/01 11:37:03;;;;;;;2.53;1.20;;;9.00;99.90;;;;;;5060882;28;20498;-45
2024/03/01 11:39:50;;;;;;;1.90;0.80;;;9.00;99.90;;;;;;5064226;28;20545;-47
2024/03/01 11:42:28;;;;;;;2.20;1.13;;;9.00;99.90;;;;;;5064711;28;20449;-45
2024/03/01 11:45:10;;;;;;;1.97;0.90;;;9.00;99.90;;;;;;5060512;28;20508;-46
2024/03/01 11:47:50;;;;;;;1.70;1.23;;;9.00;99.90;;;;;;5059386;28;20446;-45
2024/03/01 11:50:34;;;;;;;1.67;0.87;;;9.00;99.90;;;;;;5055706;28;20463;-46
2024/03/01 11:53:26;;;;;;;1.63;1.00;;;9.00;99.90;;;;;;5059496;28;20495;-45
2024/03/01 11:56:19;;;;;;;1.93;0.80;;;9.00;99.90;;;;;;5059986;28;20474;-45
2024/03/01 11:58:54;;;;;;;4.33;1.30;;;9.00;99.90;;;;;;5059702;28;20446;-46
2024/03/01 12:01:32;;;;;;;1.40;1.00;;;9.00;99.90;;;;;;5064322;28;20999;-46
2024/03/01 12:04:24;;;;;;;1.53;0.90;;;9.00;99.90;;;;;;5061158;28;21010;-45
2024/03/01 12:07:15;;;;;;;1.40;0.97;;;9.00;99.90;;;;;;5061112;28;20460;-45
2024/03/01 12:09:58;;;;;;;1.83;1.17;;;9.10;99.90;;;;;;5067670;28;20511;-46
2024/03/01 12:12:41;;;;;;;1.70;1.00;;;9.10;99.90;;;;;;5060994;28;20427;-45
2024/03/01 12:15:17;;;;;;;2.07;1.17;;;9.10;99.90;;;;;;5061845;28;20469;-47
2024/03/01 12:17:54;;;;;;;3.60;1.43;;;9.10;99.90;;;;;;5043495;28;21055;-46
2024/03/01 12:20:25;;;;;;;2.63;1.30;;;9.20;99.90;;;;;;5061026;28;20465;-47
2024/03/01 12:23:18;;;;;;;2.40;1.03;;;9.20;99.90;;;;;;5068052;28;20438;-45
2024/03/01 12:25:46;;;;;;;4.60;1.30;;;9.20;99.90;;;;;;5067731;28;20466;-44
2024/03/01 12:28:37;;;;;;;1.47;0.97;;;9.20;99.90;;;;;;5056926;28;20828;-45
2024/03/01 12:31:24;;;;;;;1.80;1.10;;;9.20;99.90;;;;;;5056149;28;20518;-44
2024/03/01 12:34:14;;;;;;;1.87;1.07;;;9.20;99.90;;;;;;5064064;28;20451;-46
2024/03/01 12:36:50;;;;;;;1.50;1.00;;;9.10;99.90;;;;;;5048882;28;20478;-44
2024/03/01 12:39:28;;;;;;;2.30;1.67;;;9.10;99.90;;;;;;5063678;28;20725;-44
2024/03/01 12:42:08;;;;;;;2.63;1.53;;;9.10;99.90;;;;;;5069985;28;20507;-46
2024/03/01 12:44:54;;;;;;;1.50;0.87;;;9.10;99.90;;;;;;5064664;28;21093;-44
2024/03/01 12:47:52;;;;;;;1.80;1.13;;;9.10;99.90;;;;;;5066034;28;20434;-44
2024/03/01 12:50:31;;;;;;;7.77;0.97;;;9.20;99.90;;;;;;5060546;28;20550;-45
2024/03/01 12:53:30;;;;;;;3.23;1.27;;;9.20;99.90;;;;;;5065772;28;20488;-45
2024/03/01 12:56:05;;;;;;;1.50;1.00;;;9.30;99.90;;;;;;5069062;28;20560;-44
2024/03/01 12:58:45;;;;;;;2.90;0.90;;;9.30;99.90;;;;;;5069047;28;20962;-45
2024/03/01 13:01:30;;;;;;;4.60;0.97;;;9.30;99.90;;;;;;5069784;28;20462;-45
2024/03/01 13:04:16;;;;;;;3.03;1.30;;;9.20;99.90;;;;;;5059822;28;20462;-44
2024/03/01 13:06:48;;;;;;;2.67;0.80;;;9.30;99.90;;;;;;5066061;28;20640;-44
2024/03/01 13:09:30;;;;;;;2.83;1.10;;;9.30;99.90;;;;;;5070459;28;20418;-44
2024/03/01 13:12:02;;;;;;;2.13;0.97;;;9.30;99.90;;;;;;5050425;28;20815;-44
2024/03/01 13:14:40;;;;;;;1.87;0.97;;;9.30;99.90;;;;;;5068344;28;20514;-44
2024/03/01 13:17:22;;;;;;;2.13;1.00;;;9.30;99.90;;;;;;5068682;28;21070;-44
2024/03/01 13:20:23;;;;;;;2.80;1.20;;;9.30;99.90;;;;;;5064161;28;20470;-44
2024/03/01 13:23:14;;;;;;;2.13;1.00;;;9.30;99.90;;;;;;5066310;28;20430;-45
2024/03/01 13:25:56;;;;;;;4.30;1.00;;;9.30;99.90;;;;;;5068194;28;20535;-44
2024/03/01 13:28:29;;;;;;;5.80;1.17;;;9.40;99.90;;;;;;5066591;28;20431;-45
2024/03/01 13:31:02;;;;;;;1.50;0.70;;;9.40;99.90;;;;;;5066763;28;20462;-44